createdAt,value
2022-12-04T00:02:16.581Z,127.07
2022-12-04T00:04:43.347Z,118.00
2022-12-04T00:07:09.955Z,123.37
2022-12-04T00:09:36.514Z,124.00
2022-12-04T00:12:03.160Z,121.63
2022-12-04T00:14:29.693Z,118.23
2022-12-04T00:16:56.256Z,113.23
2022-12-04T00:19:22.988Z,115.30
2022-12-04T00:21:50.021Z,115.60
2022-12-04T00:24:16.707Z,113.83
2022-12-04T00:26:43.415Z,118.23
2022-12-04T00:29:09.979Z,117.67
2022-12-04T00:31:36.507Z,121.20
2022-12-04T00:34:07.780Z,117.57
2022-12-04T00:36:34.914Z,118.93
2022-12-04T00:39:01.486Z,123.03
2022-12-04T00:41:29.064Z,121.40
2022-12-04T00:43:55.604Z,129.90
2022-12-04T00:46:22.493Z,122.37
2022-12-04T00:48:49.276Z,121.90
2022-12-04T00:51:17.345Z,116.20
2022-12-04T00:53:43.941Z,122.10
2022-12-04T00:56:11.716Z,113.90
2022-12-04T00:58:38.250Z,116.80
2022-12-04T01:01:08.943Z,112.03
2022-12-04T01:03:35.566Z,107.73
2022-12-04T01:06:02.425Z,116.00
2022-12-04T01:08:28.980Z,114.23
2022-12-04T01:10:55.547Z,112.90
2022-12-04T01:13:23.213Z,114.77
2022-12-04T01:15:49.802Z,113.37
2022-12-04T01:18:16.829Z,116.10
2022-12-04T01:20:50.194Z,114.80
2022-12-04T01:23:17.509Z,117.60
2022-12-04T01:25:51.107Z,118.17
2022-12-04T01:28:17.635Z,118.53
2022-12-04T01:30:44.145Z,120.80
2022-12-04T01:33:10.673Z,119.90
2022-12-04T01:35:37.221Z,115.77
2022-12-04T01:38:03.748Z,118.27
2022-12-04T01:40:30.285Z,116.57
2022-12-04T01:42:56.827Z,117.50
2022-12-04T01:45:38.778Z,125.97
2022-12-04T01:48:18.901Z,119.10
2022-12-04T01:50:45.821Z,115.70
2022-12-04T01:53:13.230Z,125.33
2022-12-04T01:55:39.921Z,124.50
2022-12-04T01:58:07.193Z,123.30
2022-12-04T02:00:33.833Z,115.47
2022-12-04T02:03:00.657Z,121.57
2022-12-04T02:05:27.571Z,120.07
2022-12-04T02:08:01.267Z,117.90
2022-12-04T02:10:42.777Z,121.30
2022-12-04T02:13:15.305Z,117.50
2022-12-04T02:15:42.218Z,114.60
2022-12-04T02:18:11.806Z,122.40
2022-12-04T02:20:41.178Z,128.73
2022-12-04T02:23:13.464Z,118.87
2022-12-04T02:25:58.563Z,122.90
2022-12-04T02:28:30.858Z,122.43
2022-12-04T02:30:59.685Z,122.97
2022-12-04T02:33:28.855Z,123.33
2022-12-04T02:35:58.998Z,131.27
2022-12-04T02:38:31.501Z,132.73
2022-12-04T02:41:00.934Z,129.80
2022-12-04T02:43:30.736Z,125.47
2022-12-04T02:45:57.259Z,119.77
2022-12-04T02:48:25.370Z,133.27
2022-12-04T02:50:53.889Z,126.30
2022-12-04T02:53:22.274Z,130.13
2022-12-04T02:55:52.117Z,133.37
2022-12-04T02:58:24.761Z,131.13
2022-12-04T03:00:53.840Z,127.17
2022-12-04T03:03:23.039Z,129.73
2022-12-04T03:05:49.480Z,127.57
2022-12-04T03:08:18.947Z,117.80
2022-12-04T03:10:53.473Z,120.77
2022-12-04T03:13:26.689Z,130.90
2022-12-04T03:15:56.291Z,133.87
2022-12-04T03:18:26.619Z,132.90
2022-12-04T03:21:03.560Z,123.60
2022-12-04T03:23:32.256Z,135.23
2022-12-04T03:26:10.464Z,122.30
2022-12-04T03:28:46.693Z,141.93
2022-12-04T03:31:14.982Z,126.13
2022-12-04T03:33:42.643Z,134.87
2022-12-04T03:36:15.833Z,128.77
2022-12-04T03:38:46.450Z,123.87
2022-12-04T03:41:33.401Z,130.07
2022-12-04T03:43:59.937Z,143.15
2022-12-04T03:46:38.857Z,134.37
2022-12-04T03:49:22.961Z,128.37
2022-12-04T03:51:59.639Z,131.80
2022-12-04T03:54:28.910Z,135.97
2022-12-04T03:56:58.280Z,139.47
2022-12-04T03:59:30.260Z,128.33
2022-12-04T04:01:59.294Z,124.90
2022-12-04T04:04:33.614Z,131.83
2022-12-04T04:07:08.599Z,143.57
2022-12-04T04:09:37.035Z,131.93
2022-12-04T04:12:06.829Z,133.83
2022-12-04T04:15:27.347Z,136.87
2022-12-04T04:18:13.355Z,132.10
2022-12-04T04:21:06.226Z,123.90
2022-12-04T04:23:57.181Z,137.63
2022-12-04T04:26:26.568Z,137.40
2022-12-04T04:28:53.058Z,124.07
2022-12-04T04:31:25.490Z,142.73
2022-12-04T04:33:57.858Z,134.67
2022-12-04T04:36:30.168Z,138.97
2022-12-04T04:39:00.878Z,127.73
2022-12-04T04:41:30.687Z,129.53
2022-12-04T04:44:19.919Z,132.50
2022-12-04T04:46:50.946Z,127.87
2022-12-04T04:49:19.389Z,128.80
2022-12-04T04:51:46.320Z,130.33
2022-12-04T04:54:14.497Z,124.10
2022-12-04T04:56:42.203Z,131.00
2022-12-04T04:59:08.742Z,130.67
2022-12-04T05:01:36.397Z,131.80
2022-12-04T05:04:04.071Z,129.53
2022-12-04T05:06:30.624Z,144.47
2022-12-04T05:08:57.249Z,142.10
2022-12-04T05:11:23.833Z,132.70
2022-12-04T05:13:50.355Z,119.87
2022-12-04T05:16:17.100Z,132.53
2022-12-04T05:19:03.715Z,129.30
2022-12-04T05:21:30.266Z,124.40
2022-12-04T05:23:56.780Z,126.23
2022-12-04T05:26:23.291Z,128.40
2022-12-04T05:28:49.822Z,135.43
2022-12-04T05:31:16.442Z,128.60
2022-12-04T05:33:42.999Z,131.60
2022-12-04T05:36:10.758Z,126.03
2022-12-04T05:38:37.771Z,130.07
2022-12-04T05:41:05.359Z,130.93
2022-12-04T05:43:33.478Z,121.77
2022-12-04T05:46:03.976Z,140.67
2022-12-04T05:48:30.563Z,127.17
2022-12-04T05:50:57.062Z,122.47
2022-12-04T05:53:23.655Z,120.43
2022-12-04T05:55:56.975Z,134.07
2022-12-04T05:58:23.836Z,123.17
2022-12-04T06:00:50.452Z,133.00
2022-12-04T06:03:17.034Z,118.90
2022-12-04T06:05:43.565Z,115.77
2022-12-04T06:08:10.182Z,132.57
2022-12-04T06:10:36.685Z,134.27
2022-12-04T06:13:04.695Z,130.93
2022-12-04T06:15:31.163Z,136.90
2022-12-04T06:17:57.634Z,125.30
2022-12-04T06:20:24.198Z,119.10
2022-12-04T06:22:50.682Z,118.93
2022-12-04T06:25:17.294Z,126.40
2022-12-04T06:27:44.353Z,121.27
2022-12-04T06:30:10.993Z,123.50
2022-12-04T06:32:37.516Z,126.43
2022-12-04T06:35:04.397Z,130.20
2022-12-04T06:37:30.901Z,132.23
2022-12-04T06:39:57.664Z,131.10
2022-12-04T06:42:24.322Z,126.67
2022-12-04T06:44:50.839Z,144.80
2022-12-04T06:47:17.357Z,122.43
2022-12-04T06:49:45.937Z,139.43
2022-12-04T06:52:12.473Z,144.70
2022-12-04T06:54:38.947Z,135.70
2022-12-04T06:57:05.467Z,136.87
2022-12-04T06:59:33.637Z,137.40
2022-12-04T07:02:00.189Z,129.07
2022-12-04T07:04:26.741Z,134.20
2022-12-04T07:06:53.326Z,137.23
2022-12-04T07:09:19.846Z,124.40
2022-12-04T07:11:46.430Z,138.10
2022-12-04T07:14:13.435Z,132.80
2022-12-04T07:16:41.925Z,132.97
2022-12-04T07:19:13.055Z,122.67
2022-12-04T07:21:39.946Z,120.37
2022-12-04T07:24:06.473Z,126.43
2022-12-04T07:26:33.041Z,125.63
2022-12-04T07:28:59.763Z,127.27
2022-12-04T07:31:27.994Z,136.80
2022-12-04T07:33:54.685Z,127.40
2022-12-04T07:36:22.168Z,127.17
2022-12-04T07:38:48.699Z,130.47
2022-12-04T07:41:15.317Z,142.70
2022-12-04T07:43:42.085Z,133.50
2022-12-04T07:46:10.908Z,136.13
2022-12-04T07:48:37.476Z,136.33
2022-12-04T07:51:07.872Z,148.60
2022-12-04T07:53:35.338Z,125.37
2022-12-04T07:56:02.496Z,127.20
2022-12-04T07:58:28.968Z,141.30
2022-12-04T08:00:55.629Z,132.43
2022-12-04T08:03:22.174Z,138.00
2022-12-04T08:05:48.743Z,133.27
2022-12-04T08:08:15.288Z,131.97
2022-12-04T08:10:41.885Z,130.80
2022-12-04T08:13:08.424Z,135.83
2022-12-04T08:15:35.528Z,134.77
2022-12-04T08:18:02.019Z,132.27
2022-12-04T08:20:28.675Z,128.50
2022-12-04T08:22:55.169Z,130.43
2022-12-04T08:25:21.715Z,137.73
2022-12-04T08:27:48.340Z,137.13
2022-12-04T08:30:14.906Z,131.40
2022-12-04T08:32:41.492Z,130.57
2022-12-04T08:35:08.187Z,124.83
2022-12-04T08:37:34.724Z,129.40
2022-12-04T08:40:01.211Z,142.23
2022-12-04T08:42:27.745Z,128.90
2022-12-04T08:44:54.249Z,140.87
2022-12-04T08:47:20.849Z,131.10
2022-12-04T08:49:47.348Z,138.47
2022-12-04T08:52:14.103Z,128.10
2022-12-04T08:54:40.720Z,137.13
2022-12-04T08:57:07.320Z,145.47
2022-12-04T08:59:33.942Z,160.40
2022-12-04T09:02:00.590Z,157.03
2022-12-04T09:04:27.264Z,132.73
2022-12-04T09:06:53.801Z,150.63
2022-12-04T09:09:20.280Z,135.50
2022-12-04T09:11:46.877Z,137.97
2022-12-04T09:14:13.380Z,145.70
2022-12-04T09:16:39.947Z,145.50
2022-12-04T09:19:06.457Z,140.07
2022-12-04T09:21:33.082Z,137.67
2022-12-04T09:24:00.183Z,152.87
2022-12-04T09:26:28.373Z,144.90
2022-12-04T09:28:55.411Z,141.43
2022-12-04T09:31:22.915Z,137.33
2022-12-04T09:33:49.504Z,135.93
2022-12-04T09:36:16.417Z,140.77
2022-12-04T09:38:44.482Z,131.97
2022-12-04T09:41:23.054Z,134.40
2022-12-04T09:44:07.958Z,122.23
2022-12-04T09:46:34.511Z,132.60
2022-12-04T09:49:03.643Z,132.47
2022-12-04T09:51:31.326Z,135.47
2022-12-04T09:54:01.961Z,143.27
2022-12-04T09:56:29.750Z,137.00
2022-12-04T09:58:56.330Z,147.83
2022-12-04T10:01:24.348Z,141.83
2022-12-04T10:03:51.456Z,142.37
2022-12-04T10:06:25.889Z,134.27
2022-12-04T10:09:01.348Z,134.07
2022-12-04T10:11:32.566Z,151.13
2022-12-04T10:14:05.456Z,146.87
2022-12-04T10:16:50.567Z,161.13
2022-12-04T10:19:27.757Z,147.33
2022-12-04T10:22:12.808Z,138.57
2022-12-04T10:24:45.040Z,132.50
2022-12-04T10:27:37.904Z,157.70
2022-12-04T10:30:07.805Z,151.43
2022-12-04T10:32:34.878Z,155.47
2022-12-04T10:35:19.709Z,150.40
2022-12-04T10:37:47.693Z,129.80
2022-12-04T10:40:18.964Z,137.17
2022-12-04T10:43:00.870Z,134.00
2022-12-04T10:45:27.909Z,151.30
2022-12-04T10:47:54.465Z,143.47
2022-12-04T10:50:23.092Z,149.63
2022-12-04T10:52:49.786Z,134.70
2022-12-04T10:55:26.888Z,135.63
2022-12-04T10:57:53.430Z,141.03
2022-12-04T11:00:24.411Z,142.10
2022-12-04T11:02:51.779Z,140.63
2022-12-04T11:05:41.644Z,135.53
2022-12-04T11:08:19.795Z,141.63
2022-12-04T11:10:56.147Z,151.43
2022-12-04T11:13:23.556Z,139.63
2022-12-04T11:15:51.438Z,130.60
2022-12-04T11:18:19.789Z,134.53
2022-12-04T11:21:00.616Z,135.90
2022-12-04T11:23:29.787Z,140.60
2022-12-04T11:26:03.735Z,144.40
2022-12-04T11:28:47.619Z,136.27
2022-12-04T11:31:20.107Z,133.93
2022-12-04T11:33:48.278Z,126.10
2022-12-04T11:36:20.858Z,125.30
2022-12-04T11:38:47.912Z,123.63
2022-12-04T11:41:24.696Z,130.00
2022-12-04T11:43:54.136Z,136.97
2022-12-04T11:46:26.096Z,130.47
2022-12-04T11:48:52.795Z,132.50
2022-12-04T11:51:37.877Z,126.87
2022-12-04T11:54:04.389Z,130.03
2022-12-04T11:56:42.802Z,123.03
2022-12-04T11:59:09.275Z,127.77
2022-12-04T12:01:38.970Z,125.20
2022-12-04T12:04:17.552Z,121.43
2022-12-04T12:06:56.045Z,137.02
2022-12-04T12:09:22.527Z,127.27
2022-12-04T12:11:56.842Z,124.20
2022-12-04T12:14:32.266Z,127.17
2022-12-04T12:17:21.676Z,124.97
2022-12-04T12:19:48.174Z,121.63
2022-12-04T12:22:17.635Z,128.53
2022-12-04T12:24:58.817Z,127.67
2022-12-04T12:27:31.513Z,114.67
2022-12-04T12:29:58.280Z,139.30
2022-12-04T12:32:43.716Z,124.83
2022-12-04T12:35:22.094Z,133.37
2022-12-04T12:37:52.960Z,126.23
2022-12-04T12:40:25.727Z,137.57
2022-12-04T12:42:58.231Z,127.90
2022-12-04T12:45:44.153Z,138.10
2022-12-04T12:48:26.713Z,143.47
2022-12-04T12:51:14.733Z,131.73
2022-12-04T12:53:45.210Z,133.53
2022-12-04T12:56:13.249Z,141.33
2022-12-04T12:58:50.105Z,134.37
2022-12-04T13:01:19.811Z,136.10
2022-12-04T13:03:53.771Z,141.67
2022-12-04T13:06:24.104Z,124.80
2022-12-04T13:09:12.401Z,133.50
2022-12-04T13:11:39.118Z,126.63
2022-12-04T13:14:06.097Z,131.10
2022-12-04T13:16:49.984Z,139.00
2022-12-04T13:19:21.167Z,120.73
2022-12-04T13:21:50.734Z,126.33
2022-12-04T13:24:17.807Z,121.40
2022-12-04T13:26:53.540Z,126.27
2022-12-04T13:29:26.020Z,120.67
2022-12-04T13:32:01.028Z,134.30
2022-12-04T13:34:35.541Z,131.53
2022-12-04T13:37:17.351Z,121.47
2022-12-04T13:40:02.489Z,121.33
2022-12-04T13:42:29.117Z,129.10
2022-12-04T13:45:00.264Z,123.90
2022-12-04T13:47:31.884Z,126.10
2022-12-04T13:50:07.754Z,116.53
2022-12-04T13:52:41.703Z,123.90
2022-12-04T13:55:22.730Z,121.63
2022-12-04T13:57:55.416Z,117.37
2022-12-04T14:00:28.135Z,127.77
2022-12-04T14:02:56.099Z,115.83
2022-12-04T14:05:30.715Z,130.90
2022-12-04T14:08:08.245Z,122.90
2022-12-04T14:10:36.803Z,121.50
2022-12-04T14:13:12.441Z,115.80
2022-12-04T14:15:39.505Z,131.70
2022-12-04T14:18:05.988Z,121.47
2022-12-04T14:20:33.606Z,115.87
2022-12-04T14:23:26.684Z,115.50
2022-12-04T14:25:57.915Z,119.13
2022-12-04T14:28:30.248Z,118.73
2022-12-04T14:31:08.723Z,111.77
2022-12-04T14:33:39.183Z,119.97
2022-12-04T14:36:08.110Z,121.17
2022-12-04T14:38:34.796Z,106.67
2022-12-04T14:41:01.775Z,126.43
2022-12-04T14:43:31.237Z,118.27
2022-12-04T14:46:01.406Z,117.23
2022-12-04T14:48:40.158Z,117.43
2022-12-04T14:51:17.696Z,114.57
2022-12-04T14:53:47.413Z,115.63
2022-12-04T14:56:32.584Z,104.23
2022-12-04T14:59:04.858Z,111.77
2022-12-04T15:01:35.306Z,129.03
2022-12-04T15:04:07.339Z,108.70
2022-12-04T15:06:33.937Z,132.20
2022-12-04T15:09:20.404Z,130.18
2022-12-04T15:12:12.213Z,147.87
2022-12-04T15:14:46.290Z,110.77
2022-12-04T15:17:13.743Z,125.17
2022-12-04T15:19:40.275Z,111.93
2022-12-04T15:22:26.104Z,107.37
2022-12-04T15:24:53.116Z,122.90
2022-12-04T15:27:21.051Z,111.10
2022-12-04T15:29:51.478Z,108.00
2022-12-04T15:32:19.827Z,118.13
2022-12-04T15:34:48.797Z,108.67
2022-12-04T15:37:18.442Z,120.43
2022-12-04T15:39:45.202Z,103.83
2022-12-04T15:42:23.842Z,113.27
2022-12-04T15:44:53.293Z,108.33
2022-12-04T15:47:24.711Z,108.50
2022-12-04T15:49:51.527Z,113.57
2022-12-04T15:52:19.919Z,113.70
2022-12-04T15:55:02.448Z,108.80
2022-12-04T15:57:30.863Z,105.97
2022-12-04T16:00:01.178Z,116.43
2022-12-04T16:02:32.618Z,113.50
2022-12-04T16:04:59.535Z,105.90
2022-12-04T16:07:27.584Z,110.20
2022-12-04T16:10:03.265Z,105.87
2022-12-04T16:12:31.594Z,109.10
2022-12-04T16:14:58.496Z,112.57
2022-12-04T16:17:30.426Z,113.67
2022-12-04T16:19:57.376Z,104.40
2022-12-04T16:22:26.800Z,108.83
2022-12-04T16:24:54.118Z,112.00
2022-12-04T16:27:22.967Z,103.73
2022-12-04T16:29:50.110Z,105.07
2022-12-04T16:32:17.458Z,117.03
2022-12-04T16:34:44.249Z,122.63
2022-12-04T16:37:15.861Z,114.70
2022-12-04T16:39:42.690Z,114.83
2022-12-04T16:42:17.196Z,108.10
2022-12-04T16:44:44.065Z,101.43
2022-12-04T16:47:14.180Z,98.63
2022-12-04T16:49:41.138Z,107.60
2022-12-04T16:52:07.929Z,96.63
2022-12-04T16:54:34.658Z,99.37
2022-12-04T16:57:01.182Z,106.33
2022-12-04T16:59:27.726Z,99.57
2022-12-04T17:01:54.563Z,97.17
2022-12-04T17:04:21.221Z,99.13
2022-12-04T17:06:47.766Z,105.10
2022-12-04T17:09:14.414Z,95.97
2022-12-04T17:11:40.997Z,98.57
2022-12-04T17:14:07.802Z,96.87
2022-12-04T17:16:38.503Z,93.80
2022-12-04T17:19:05.242Z,86.20
2022-12-04T17:21:31.951Z,96.83
2022-12-04T17:23:58.449Z,89.60
2022-12-04T17:26:24.971Z,93.50
2022-12-04T17:28:51.526Z,90.03
2022-12-04T17:31:19.373Z,88.70
2022-12-04T17:33:46.071Z,85.40
2022-12-04T17:36:13.516Z,93.63
2022-12-04T17:38:43.287Z,91.67
2022-12-04T17:41:10.845Z,95.43
2022-12-04T17:43:37.389Z,90.60
2022-12-04T17:46:08.580Z,96.87
2022-12-04T17:48:35.260Z,94.63
2022-12-04T17:51:09.927Z,96.10
2022-12-04T17:53:37.015Z,92.07
2022-12-04T17:56:08.666Z,96.87
2022-12-04T17:58:35.637Z,91.83
2022-12-04T18:01:09.501Z,92.33
2022-12-04T18:03:36.427Z,96.50
2022-12-04T18:06:22.410Z,95.73
2022-12-04T18:08:50.378Z,92.30
2022-12-04T18:11:20.443Z,99.57
2022-12-04T18:13:54.052Z,90.77
2022-12-04T18:16:20.618Z,99.13
2022-12-04T18:18:47.680Z,92.47
2022-12-04T18:21:14.823Z,87.73
2022-12-04T18:23:45.584Z,99.20
2022-12-04T18:26:13.111Z,91.13
2022-12-04T18:28:39.651Z,92.90
2022-12-04T18:31:07.120Z,92.50
2022-12-04T18:33:34.593Z,93.97
2022-12-04T18:36:01.374Z,92.87
2022-12-04T18:38:30.610Z,91.07
2022-12-04T18:41:01.642Z,97.93
2022-12-04T18:43:28.153Z,100.83
2022-12-04T18:46:04.072Z,98.53
2022-12-04T18:48:33.709Z,101.87
2022-12-04T18:51:00.359Z,91.00
2022-12-04T18:53:26.926Z,113.33
2022-12-04T18:55:54.006Z,107.57
2022-12-04T18:58:22.704Z,107.87
2022-12-04T19:00:49.385Z,154.27
2022-12-04T19:03:15.952Z,274.27
2022-12-04T19:05:49.556Z,337.20
2022-12-04T19:08:17.646Z,303.70
2022-12-04T19:10:44.388Z,126.70
2022-12-04T19:13:10.978Z,191.73
2022-12-04T19:15:41.623Z,198.43
2022-12-04T19:18:08.192Z,122.80
2022-12-04T19:20:34.678Z,103.37
2022-12-04T19:23:01.347Z,101.23
2022-12-04T19:25:27.849Z,97.40
2022-12-04T19:27:55.110Z,101.20
2022-12-04T19:30:22.018Z,108.70
2022-12-04T19:32:49.106Z,113.20
2022-12-04T19:35:15.641Z,100.03
2022-12-04T19:37:44.814Z,110.93
2022-12-04T19:40:14.900Z,124.47
2022-12-04T19:42:41.485Z,115.77
2022-12-04T19:45:08.231Z,112.10
2022-12-04T19:47:34.994Z,106.03
2022-12-04T19:50:01.780Z,100.10
2022-12-04T19:52:28.343Z,105.90
2022-12-04T19:54:54.985Z,94.07
2022-12-04T19:57:21.557Z,141.37
2022-12-04T19:59:48.099Z,171.07
2022-12-04T20:02:15.149Z,232.13
2022-12-04T20:04:41.931Z,149.93
2022-12-04T20:07:08.616Z,135.37
2022-12-04T20:09:35.228Z,110.27
2022-12-04T20:12:02.060Z,108.27
2022-12-04T20:14:28.697Z,94.33
2022-12-04T20:16:55.348Z,113.60
2022-12-04T20:19:21.987Z,89.13
2022-12-04T20:21:48.617Z,107.27
2022-12-04T20:24:16.743Z,100.77
2022-12-04T20:26:43.907Z,151.63
2022-12-04T20:29:14.044Z,142.10
2022-12-04T20:31:41.939Z,128.87
2022-12-04T20:34:11.292Z,102.87
2022-12-04T20:36:40.541Z,109.33
2022-12-04T20:39:07.481Z,107.10
2022-12-04T20:41:34.326Z,113.00
2022-12-04T20:44:02.140Z,103.97
2022-12-04T20:46:33.606Z,118.60
2022-12-04T20:49:01.521Z,102.83
2022-12-04T20:51:32.331Z,193.70
2022-12-04T20:53:59.397Z,118.30
2022-12-04T20:56:29.998Z,135.80
2022-12-04T20:58:57.976Z,109.43
2022-12-04T21:01:24.940Z,102.93
2022-12-04T21:03:52.284Z,139.90
2022-12-04T21:06:20.151Z,111.23
2022-12-04T21:08:53.201Z,100.03
2022-12-04T21:11:20.593Z,88.20
2022-12-04T21:14:05.926Z,90.00
2022-12-04T21:16:32.469Z,86.20
2022-12-04T21:18:59.085Z,77.33
2022-12-04T21:21:26.375Z,111.67
2022-12-04T21:23:53.019Z,133.40
2022-12-04T21:26:19.883Z,97.73
2022-12-04T21:28:46.740Z,90.93
2022-12-04T21:31:13.344Z,112.47
2022-12-04T21:33:39.972Z,95.73
2022-12-04T21:36:09.939Z,94.67
2022-12-04T21:38:37.106Z,80.77
2022-12-04T21:41:04.439Z,81.80
2022-12-04T21:43:31.534Z,81.83
2022-12-04T21:46:00.190Z,88.17
2022-12-04T21:48:28.684Z,78.00
2022-12-04T21:50:55.593Z,79.67
2022-12-04T21:53:22.421Z,77.83
2022-12-04T21:55:53.942Z,76.40
2022-12-04T21:58:20.744Z,90.43
2022-12-04T22:00:47.595Z,76.37
2022-12-04T22:03:14.597Z,78.57
2022-12-04T22:05:42.264Z,98.85
2022-12-04T22:08:09.947Z,92.53
2022-12-04T22:10:40.237Z,78.07
2022-12-04T22:13:06.752Z,82.67
2022-12-04T22:15:36.022Z,79.67
2022-12-04T22:18:02.792Z,80.50
2022-12-04T22:20:29.279Z,81.30
2022-12-04T22:22:55.753Z,73.93
2022-12-04T22:25:22.271Z,71.43
2022-12-04T22:27:48.818Z,73.33
2022-12-04T22:30:15.673Z,73.40
2022-12-04T22:32:42.450Z,69.97
2022-12-04T22:35:09.217Z,72.87
2022-12-04T22:37:38.536Z,68.13
2022-12-04T22:40:09.641Z,68.40
2022-12-04T22:42:36.160Z,69.47
2022-12-04T22:45:02.736Z,68.60
2022-12-04T22:47:29.265Z,66.33
2022-12-04T22:49:56.192Z,73.00
2022-12-04T22:52:22.874Z,66.03
2022-12-04T22:54:52.498Z,67.70
2022-12-04T22:57:19.007Z,69.57
2022-12-04T22:59:45.587Z,68.03
2022-12-04T23:02:12.362Z,71.50
2022-12-04T23:04:38.982Z,68.17
2022-12-04T23:07:05.900Z,68.53
2022-12-04T23:09:32.386Z,62.80
2022-12-04T23:11:58.870Z,65.43
2022-12-04T23:14:27.061Z,63.97
2022-12-04T23:16:53.686Z,71.50
2022-12-04T23:19:20.276Z,71.37
2022-12-04T23:21:50.808Z,68.30
2022-12-04T23:24:21.617Z,69.47
2022-12-04T23:26:48.116Z,69.90
2022-12-04T23:29:37.009Z,65.43
2022-12-04T23:32:01.316Z,71.03
2022-12-04T23:34:27.858Z,68.20
2022-12-04T23:36:54.359Z,66.47
2022-12-04T23:39:20.836Z,68.13
2022-12-04T23:41:47.412Z,74.17
2022-12-04T23:44:13.929Z,66.47
2022-12-04T23:46:40.475Z,66.60
2022-12-04T23:49:07.030Z,67.90
2022-12-04T23:51:33.533Z,72.47
2022-12-04T23:54:00.027Z,70.87
2022-12-04T23:56:27.502Z,69.47
2022-12-04T23:58:54.571Z,65.10
